sensor_id;sensor_type;location;lat;lon;timestamp;temperature;humidity
21849;DHT22;11089;49.852;19.700;2023-02-18T00:01:00;10.10;1.00
21849;DHT22;11089;49.852;19.700;2023-02-18T00:04:01;10.20;1.00
21849;DHT22;11089;49.852;19.700;2023-02-18T00:07:02;10.20;1.00
21849;DHT22;11089;49.852;19.700;2023-02-18T00:10:05;10.20;99.90
21849;DHT22;11089;49.852;19.700;2023-02-18T00:13:06;10.20;1.00
21849;DHT22;11089;49.852;19.700;2023-02-18T00:16:10;10.10;1.00
21849;DHT22;11089;49.852;19.700;2023-02-18T00:19:20;10.10;99.90
21849;DHT22;11089;49.852;19.700;2023-02-18T00:22:21;10.10;4.30
21849;DHT22;11089;49.852;19.700;2023-02-18T00:25:22;10.10;1.00
21849;DHT22;11089;49.852;19.700;2023-02-18T00:28:23;10.10;99.90
21849;DHT22;11089;49.852;19.700;2023-02-18T00:31:28;10.10;1.00
21849;DHT22;11089;49.852;19.700;2023-02-18T00:34:29;10.10;1.00
21849;DHT22;11089;49.852;19.700;2023-02-18T00:37:30;10.20;1.00
21849;DHT22;11089;49.852;19.700;2023-02-18T00:40:31;10.10;1.00
21849;DHT22;11089;49.852;19.700;2023-02-18T00:43:32;10.00;1.00
21849;DHT22;11089;49.852;19.700;2023-02-18T00:46:33;10.00;1.00
21849;DHT22;11089;49.852;19.700;2023-02-18T00:49:34;10.00;3.50
21849;DHT22;11089;49.852;19.700;2023-02-18T00:52:35;9.90;1.00
21849;DHT22;11089;49.852;19.700;2023-02-18T00:55:41;10.00;82.50
21849;DHT22;11089;49.852;19.700;2023-02-18T00:58:43;10.00;1.00
21849;DHT22;11089;49.852;19.700;2023-02-18T01:01:44;10.10;1.00
21849;DHT22;11089;49.852;19.700;2023-02-18T01:04:44;10.00;1.00
21849;DHT22;11089;49.852;19.700;2023-02-18T01:07:46;9.90;65.10
21849;DHT22;11089;49.852;19.700;2023-02-18T01:10:51;9.90;99.90
21849;DHT22;11089;49.852;19.700;2023-02-18T01:13:52;10.00;1.00
21849;DHT22;11089;49.852;19.700;2023-02-18T01:16:53;10.10;99.90
21849;DHT22;11089;49.852;19.700;2023-02-18T01:19:54;10.10;1.00
21849;DHT22;11089;49.852;19.700;2023-02-18T01:22:55;10.10;1.00
21849;DHT22;11089;49.852;19.700;2023-02-18T01:25:56;10.10;99.90
21849;DHT22;11089;49.852;19.700;2023-02-18T01:28:57;10.10;1.00
21849;DHT22;11089;49.852;19.700;2023-02-18T01:31:58;10.10;1.00
21849;DHT22;11089;49.852;19.700;2023-02-18T01:35:01;10.10;99.90
21849;DHT22;11089;49.852;19.700;2023-02-18T01:38:02;10.20;99.90
21849;DHT22;11089;49.852;19.700;2023-02-18T01:41:03;10.10;99.90
21849;DHT22;11089;49.852;19.700;2023-02-18T01:44:18;10.10;99.90
21849;DHT22;11089;49.852;19.700;2023-02-18T01:47:20;10.20;99.90
21849;DHT22;11089;49.852;19.700;2023-02-18T01:50:21;10.10;99.90
21849;DHT22;11089;49.852;19.700;2023-02-18T01:54:18;10.00;99.90
21849;DHT22;11089;49.852;19.700;2023-02-18T01:56:54;9.80;1.00
21849;DHT22;11089;49.852;19.700;2023-02-18T02:00:20;9.50;1.00
21849;DHT22;11089;49.852;19.700;2023-02-18T02:03:23;9.30;1.00
21849;DHT22;11089;49.852;19.700;2023-02-18T02:06:24;9.10;1.00
21849;DHT22;11089;49.852;19.700;2023-02-18T02:09:27;9.00;99.90
21849;DHT22;11089;49.852;19.700;2023-02-18T02:16:05;8.80;99.90
21849;DHT22;11089;49.852;19.700;2023-02-18T02:23:11;8.70;99.90
21849;DHT22;11089;49.852;19.700;2023-02-18T02:37:31;8.70;99.90
21849;DHT22;11089;49.852;19.700;2023-02-18T02:46:43;8.30;1.00
21849;DHT22;11089;49.852;19.700;2023-02-18T02:52:59;8.20;99.90
21849;DHT22;11089;49.852;19.700;2023-02-18T02:56:02;8.10;99.90
21849;DHT22;11089;49.852;19.700;2023-02-18T02:59:07;8.10;99.90
21849;DHT22;11089;49.852;19.700;2023-02-18T03:09:09;7.90;1.00
21849;DHT22;11089;49.852;19.700;2023-02-18T03:19:01;7.90;1.00
21849;DHT22;11089;49.852;19.700;2023-02-18T03:22:12;7.90;1.00
21849;DHT22;11089;49.852;19.700;2023-02-18T03:25:16;8.00;1.00
21849;DHT22;11089;49.852;19.700;2023-02-18T03:28:20;8.00;1.00
21849;DHT22;11089;49.852;19.700;2023-02-18T03:31:25;7.90;1.00
21849;DHT22;11089;49.852;19.700;2023-02-18T03:34:33;7.90;99.90
21849;DHT22;11089;49.852;19.700;2023-02-18T03:37:38;8.00;1.00
21849;DHT22;11089;49.852;19.700;2023-02-18T03:40:41;8.00;1.00
21849;DHT22;11089;49.852;19.700;2023-02-18T03:44:01;7.90;1.00
21849;DHT22;11089;49.852;19.700;2023-02-18T03:47:02;8.00;99.70
21849;DHT22;11089;49.852;19.700;2023-02-18T03:50:03;8.10;99.90
21849;DHT22;11089;49.852;19.700;2023-02-18T03:53:04;8.00;99.90
21849;DHT22;11089;49.852;19.700;2023-02-18T03:56:05;8.00;99.90
21849;DHT22;11089;49.852;19.700;2023-02-18T03:59:06;7.90;1.00
21849;DHT22;11089;49.852;19.700;2023-02-18T04:02:07;7.90;1.00
21849;DHT22;11089;49.852;19.700;2023-02-18T04:05:08;8.00;99.90
21849;DHT22;11089;49.852;19.700;2023-02-18T04:08:09;7.90;1.00
21849;DHT22;11089;49.852;19.700;2023-02-18T04:11:10;7.90;99.90
21849;DHT22;11089;49.852;19.700;2023-02-18T04:14:13;7.80;1.00
21849;DHT22;11089;49.852;19.700;2023-02-18T04:17:14;7.80;1.00
21849;DHT22;11089;49.852;19.700;2023-02-18T04:20:15;7.80;99.90
21849;DHT22;11089;49.852;19.700;2023-02-18T04:23:16;7.80;1.00
21849;DHT22;11089;49.852;19.700;2023-02-18T04:26:17;7.80;1.00
21849;DHT22;11089;49.852;19.700;2023-02-18T04:29:18;7.80;99.90
21849;DHT22;11089;49.852;19.700;2023-02-18T04:32:19;7.80;1.00
21849;DHT22;11089;49.852;19.700;2023-02-18T04:35:20;7.80;82.80
21849;DHT22;11089;49.852;19.700;2023-02-18T04:38:21;7.80;99.90
21849;DHT22;11089;49.852;19.700;2023-02-18T04:41:22;7.80;1.00
21849;DHT22;11089;49.852;19.700;2023-02-18T04:44:22;7.80;1.00
21849;DHT22;11089;49.852;19.700;2023-02-18T04:47:23;7.70;99.90
21849;DHT22;11089;49.852;19.700;2023-02-18T04:50:24;7.80;1.00
21849;DHT22;11089;49.852;19.700;2023-02-18T04:53:25;7.80;1.00
21849;DHT22;11089;49.852;19.700;2023-02-18T04:56:26;7.60;99.90
21849;DHT22;11089;49.852;19.700;2023-02-18T04:59:27;7.60;99.90
21849;DHT22;11089;49.852;19.700;2023-02-18T05:02:28;7.60;1.00
21849;DHT22;11089;49.852;19.700;2023-02-18T05:05:29;7.60;1.00
21849;DHT22;11089;49.852;19.700;2023-02-18T05:08:30;7.60;1.00
21849;DHT22;11089;49.852;19.700;2023-02-18T05:11:31;7.50;99.90
21849;DHT22;11089;49.852;19.700;2023-02-18T05:14:32;7.50;1.00
21849;DHT22;11089;49.852;19.700;2023-02-18T05:17:33;7.50;1.00
21849;DHT22;11089;49.852;19.700;2023-02-18T05:20:34;7.40;1.00
21849;DHT22;11089;49.852;19.700;2023-02-18T05:23:35;7.30;99.90
21849;DHT22;11089;49.852;19.700;2023-02-18T05:26:36;7.40;1.00
21849;DHT22;11089;49.852;19.700;2023-02-18T05:29:36;7.40;99.90
21849;DHT22;11089;49.852;19.700;2023-02-18T05:32:37;7.40;92.60
21849;DHT22;11089;49.852;19.700;2023-02-18T05:35:38;7.30;1.00
21849;DHT22;11089;49.852;19.700;2023-02-18T05:38:39;7.30;1.00
21849;DHT22;11089;49.852;19.700;2023-02-18T05:41:40;7.20;1.00
21849;DHT22;11089;49.852;19.700;2023-02-18T05:44:41;7.10;1.00
21849;DHT22;11089;49.852;19.700;2023-02-18T05:47:42;7.20;99.90
21849;DHT22;11089;49.852;19.700;2023-02-18T05:50:43;7.20;99.90
21849;DHT22;11089;49.852;19.700;2023-02-18T05:53:44;7.20;1.00
21849;DHT22;11089;49.852;19.700;2023-02-18T05:56:45;7.10;1.00
21849;DHT22;11089;49.852;19.700;2023-02-18T05:59:46;7.10;1.00
21849;DHT22;11089;49.852;19.700;2023-02-18T06:02:47;7.20;1.00
21849;DHT22;11089;49.852;19.700;2023-02-18T06:05:49;7.20;1.00
21849;DHT22;11089;49.852;19.700;2023-02-18T06:08:50;7.20;99.90
21849;DHT22;11089;49.852;19.700;2023-02-18T06:11:51;7.30;99.90
21849;DHT22;11089;49.852;19.700;2023-02-18T06:14:52;7.30;99.90
21849;DHT22;11089;49.852;19.700;2023-02-18T06:17:53;7.30;1.00
21849;DHT22;11089;49.852;19.700;2023-02-18T06:20:54;7.30;1.00
21849;DHT22;11089;49.852;19.700;2023-02-18T06:23:55;7.20;1.00
21849;DHT22;11089;49.852;19.700;2023-02-18T06:26:56;7.30;1.00
21849;DHT22;11089;49.852;19.700;2023-02-18T06:29:57;7.30;1.00
21849;DHT22;11089;49.852;19.700;2023-02-18T06:32:58;7.30;1.00
21849;DHT22;11089;49.852;19.700;2023-02-18T06:36:02;7.40;1.00
21849;DHT22;11089;49.852;19.700;2023-02-18T06:39:06;7.30;1.00
21849;DHT22;11089;49.852;19.700;2023-02-18T06:42:07;7.40;1.00
21849;DHT22;11089;49.852;19.700;2023-02-18T06:45:08;7.40;1.00
21849;DHT22;11089;49.852;19.700;2023-02-18T06:48:09;7.60;1.00
21849;DHT22;11089;49.852;19.700;2023-02-18T06:51:10;7.60;1.00
21849;DHT22;11089;49.852;19.700;2023-02-18T06:54:11;7.60;1.00
21849;DHT22;11089;49.852;19.700;2023-02-18T06:57:12;7.60;1.40
21849;DHT22;11089;49.852;19.700;2023-02-18T07:00:13;7.60;1.00
21849;DHT22;11089;49.852;19.700;2023-02-18T07:03:14;7.70;1.00
21849;DHT22;11089;49.852;19.700;2023-02-18T07:06:15;7.80;1.00
21849;DHT22;11089;49.852;19.700;2023-02-18T07:09:16;7.80;1.00
21849;DHT22;11089;49.852;19.700;2023-02-18T07:12:17;7.90;1.00
21849;DHT22;11089;49.852;19.700;2023-02-18T07:15:18;7.90;1.00
21849;DHT22;11089;49.852;19.700;2023-02-18T07:18:23;7.90;1.00
21849;DHT22;11089;49.852;19.700;2023-02-18T07:21:24;7.90;1.00
21849;DHT22;11089;49.852;19.700;2023-02-18T07:24:25;7.90;1.00
21849;DHT22;11089;49.852;19.700;2023-02-18T07:27:26;7.90;1.00
21849;DHT22;11089;49.852;19.700;2023-02-18T07:30:27;7.90;1.00
21849;DHT22;11089;49.852;19.700;2023-02-18T07:33:28;8.00;1.00
21849;DHT22;11089;49.852;19.700;2023-02-18T07:36:29;8.00;1.00
21849;DHT22;11089;49.852;19.700;2023-02-18T07:39:30;8.00;1.00
21849;DHT22;11089;49.852;19.700;2023-02-18T07:42:31;8.10;1.00
21849;DHT22;11089;49.852;19.700;2023-02-18T07:45:31;8.10;1.00
21849;DHT22;11089;49.852;19.700;2023-02-18T07:48:32;8.00;1.00
21849;DHT22;11089;49.852;19.700;2023-02-18T07:51:34;8.00;1.00
21849;DHT22;11089;49.852;19.700;2023-02-18T07:54:35;8.10;1.00
21849;DHT22;11089;49.852;19.700;2023-02-18T07:57:36;8.10;1.00
21849;DHT22;11089;49.852;19.700;2023-02-18T08:00:57;8.10;1.00
21849;DHT22;11089;49.852;19.700;2023-02-18T08:03:58;8.10;1.00
21849;DHT22;11089;49.852;19.700;2023-02-18T08:07:00;8.10;1.00
21849;DHT22;11089;49.852;19.700;2023-02-18T08:10:01;8.20;1.00
21849;DHT22;11089;49.852;19.700;2023-02-18T08:13:02;8.20;1.00
21849;DHT22;11089;49.852;19.700;2023-02-18T08:16:03;8.20;1.00
21849;DHT22;11089;49.852;19.700;2023-02-18T08:19:04;8.30;1.00
21849;DHT22;11089;49.852;19.700;2023-02-18T08:22:05;8.30;1.00
21849;DHT22;11089;49.852;19.700;2023-02-18T08:25:06;8.40;1.00
21849;DHT22;11089;49.852;19.700;2023-02-18T08:28:07;8.40;1.00
21849;DHT22;11089;49.852;19.700;2023-02-18T08:31:15;8.50;1.00
21849;DHT22;11089;49.852;19.700;2023-02-18T08:34:16;8.40;1.00
21849;DHT22;11089;49.852;19.700;2023-02-18T08:37:17;8.50;1.00
21849;DHT22;11089;49.852;19.700;2023-02-18T08:40:18;8.50;1.00
21849;DHT22;11089;49.852;19.700;2023-02-18T08:43:19;8.60;1.00
21849;DHT22;11089;49.852;19.700;2023-02-18T08:46:20;8.60;1.00
21849;DHT22;11089;49.852;19.700;2023-02-18T08:49:21;8.50;1.00
21849;DHT22;11089;49.852;19.700;2023-02-18T08:52:24;8.60;1.00
21849;DHT22;11089;49.852;19.700;2023-02-18T08:55:25;8.70;1.00
21849;DHT22;11089;49.852;19.700;2023-02-18T08:58:26;8.70;1.00
21849;DHT22;11089;49.852;19.700;2023-02-18T09:01:27;8.60;1.00
21849;DHT22;11089;49.852;19.700;2023-02-18T09:04:28;8.60;1.00
21849;DHT22;11089;49.852;19.700;2023-02-18T09:07:29;8.60;1.00
21849;DHT22;11089;49.852;19.700;2023-02-18T09:10:30;8.60;1.00
21849;DHT22;11089;49.852;19.700;2023-02-18T09:13:32;8.60;1.00
21849;DHT22;11089;49.852;19.700;2023-02-18T09:16:33;8.60;1.00
21849;DHT22;11089;49.852;19.700;2023-02-18T09:19:34;8.60;1.00
21849;DHT22;11089;49.852;19.700;2023-02-18T09:22:35;8.60;1.00
21849;DHT22;11089;49.852;19.700;2023-02-18T09:25:38;8.60;1.00
21849;DHT22;11089;49.852;19.700;2023-02-18T09:28:39;8.60;1.00
21849;DHT22;11089;49.852;19.700;2023-02-18T09:31:40;8.70;1.00
21849;DHT22;11089;49.852;19.700;2023-02-18T09:34:41;8.70;1.00
21849;DHT22;11089;49.852;19.700;2023-02-18T09:37:42;8.80;1.00
21849;DHT22;11089;49.852;19.700;2023-02-18T09:40:51;8.80;1.00
21849;DHT22;11089;49.852;19.700;2023-02-18T09:47:38;8.90;1.00
21849;DHT22;11089;49.852;19.700;2023-02-18T09:50:39;8.90;1.00
21849;DHT22;11089;49.852;19.700;2023-02-18T09:53:41;8.80;1.00
21849;DHT22;11089;49.852;19.700;2023-02-18T09:56:45;8.80;1.00
21849;DHT22;11089;49.852;19.700;2023-02-18T09:59:51;8.90;1.00
21849;DHT22;11089;49.852;19.700;2023-02-18T10:03:06;8.90;1.00
21849;DHT22;11089;49.852;19.700;2023-02-18T10:06:16;9.00;1.00
21849;DHT22;11089;49.852;19.700;2023-02-18T10:09:26;9.10;1.00
21849;DHT22;11089;49.852;19.700;2023-02-18T10:12:29;9.30;1.00
21849;DHT22;11089;49.852;19.700;2023-02-18T10:15:32;9.50;1.00
21849;DHT22;11089;49.852;19.700;2023-02-18T10:18:40;9.70;1.00
21849;DHT22;11089;49.852;19.700;2023-02-18T10:21:41;9.70;1.00
21849;DHT22;11089;49.852;19.700;2023-02-18T10:28:00;9.50;1.00
21849;DHT22;11089;49.852;19.700;2023-02-18T10:31:04;9.50;1.00
21849;DHT22;11089;49.852;19.700;2023-02-18T10:34:23;9.40;1.00
21849;DHT22;11089;49.852;19.700;2023-02-18T10:50:38;9.30;1.00
21849;DHT22;11089;49.852;19.700;2023-02-18T10:53:41;9.30;1.00
21849;DHT22;11089;49.852;19.700;2023-02-18T10:56:48;9.30;1.00
21849;DHT22;11089;49.852;19.700;2023-02-18T11:03:18;9.10;1.00
21849;DHT22;11089;49.852;19.700;2023-02-18T11:06:24;9.10;1.00
21849;DHT22;11089;49.852;19.700;2023-02-18T11:09:28;8.90;1.00
21849;DHT22;11089;49.852;19.700;2023-02-18T11:15:35;8.80;1.00
21849;DHT22;11089;49.852;19.700;2023-02-18T11:18:44;8.60;1.00
21849;DHT22;11089;49.852;19.700;2023-02-18T11:21:46;8.50;1.00
21849;DHT22;11089;49.852;19.700;2023-02-18T11:24:47;8.50;1.00
21849;DHT22;11089;49.852;19.700;2023-02-18T11:31:23;8.40;1.00
21849;DHT22;11089;49.852;19.700;2023-02-18T11:34:28;8.40;1.00
21849;DHT22;11089;49.852;19.700;2023-02-18T11:37:32;8.40;99.90
21849;DHT22;11089;49.852;19.700;2023-02-18T11:40:35;8.30;56.40
21849;DHT22;11089;49.852;19.700;2023-02-18T11:43:40;8.40;99.90
21849;DHT22;11089;49.852;19.700;2023-02-18T11:47:00;8.30;99.90
21849;DHT22;11089;49.852;19.700;2023-02-18T11:50:21;8.20;99.90
21849;DHT22;11089;49.852;19.700;2023-02-18T11:56:32;8.10;99.90
21849;DHT22;11089;49.852;19.700;2023-02-18T11:59:35;8.20;99.90
21849;DHT22;11089;49.852;19.700;2023-02-18T12:02:39;8.10;99.90
21849;DHT22;11089;49.852;19.700;2023-02-18T12:05:41;8.10;1.00
21849;DHT22;11089;49.852;19.700;2023-02-18T12:08:53;8.20;1.00
21849;DHT22;11089;49.852;19.700;2023-02-18T12:11:59;8.30;1.00
21849;DHT22;11089;49.852;19.700;2023-02-18T12:15:01;8.30;99.90
21849;DHT22;11089;49.852;19.700;2023-02-18T12:18:55;8.10;99.90
21849;DHT22;11089;49.852;19.700;2023-02-18T12:29:04;8.10;1.00
21849;DHT22;11089;49.852;19.700;2023-02-18T12:52:00;8.10;1.00
21849;DHT22;11089;49.852;19.700;2023-02-18T12:58:44;8.20;1.00
21849;DHT22;11089;49.852;19.700;2023-02-18T13:02:10;8.10;1.00
21849;DHT22;11089;49.852;19.700;2023-02-18T13:05:31;8.10;1.00
21849;DHT22;11089;49.852;19.700;2023-02-18T13:08:44;8.10;1.00
21849;DHT22;11089;49.852;19.700;2023-02-18T13:15:21;8.00;1.00
21849;DHT22;11089;49.852;19.700;2023-02-18T13:18:44;8.00;1.00
21849;DHT22;11089;49.852;19.700;2023-02-18T13:21:49;8.00;1.00
21849;DHT22;11089;49.852;19.700;2023-02-18T13:24:53;7.90;1.00
21849;DHT22;11089;49.852;19.700;2023-02-18T13:34:31;8.00;99.90
21849;DHT22;11089;49.852;19.700;2023-02-18T13:41:05;8.00;1.00
21849;DHT22;11089;49.852;19.700;2023-02-18T13:47:42;8.10;99.90
21849;DHT22;11089;49.852;19.700;2023-02-18T13:50:44;8.10;99.90
21849;DHT22;11089;49.852;19.700;2023-02-18T13:53:50;8.00;99.90
21849;DHT22;11089;49.852;19.700;2023-02-18T14:00:00;7.90;1.00
21849;DHT22;11089;49.852;19.700;2023-02-18T14:06:36;7.90;1.00
21849;DHT22;11089;49.852;19.700;2023-02-18T14:09:44;7.90;1.00
21849;DHT22;11089;49.852;19.700;2023-02-18T14:16:00;7.80;4.10
21849;DHT22;11089;49.852;19.700;2023-02-18T14:19:01;7.80;99.90
21849;DHT22;11089;49.852;19.700;2023-02-18T14:25:40;7.90;99.90
21849;DHT22;11089;49.852;19.700;2023-02-18T14:31:51;7.90;1.00
21849;DHT22;11089;49.852;19.700;2023-02-18T14:45:17;8.00;99.90
21849;DHT22;11089;49.852;19.700;2023-02-18T14:51:30;8.00;99.90
21849;DHT22;11089;49.852;19.700;2023-02-18T14:54:32;8.00;99.90
21849;DHT22;11089;49.852;19.700;2023-02-18T14:57:40;8.00;99.90
21849;DHT22;11089;49.852;19.700;2023-02-18T15:00:44;8.00;99.90
21849;DHT22;11089;49.852;19.700;2023-02-18T15:03:49;8.00;99.90
21849;DHT22;11089;49.852;19.700;2023-02-18T15:07:04;8.00;99.90
21849;DHT22;11089;49.852;19.700;2023-02-18T15:10:14;8.10;99.90
21849;DHT22;11089;49.852;19.700;2023-02-18T15:13:25;8.10;99.90
21849;DHT22;11089;49.852;19.700;2023-02-18T15:16:31;8.10;99.90
21849;DHT22;11089;49.852;19.700;2023-02-18T15:19:43;8.20;99.90
21849;DHT22;11089;49.852;19.700;2023-02-18T15:22:47;8.20;99.90
21849;DHT22;11089;49.852;19.700;2023-02-18T15:25:51;8.20;99.90
21849;DHT22;11089;49.852;19.700;2023-02-18T15:28:58;8.20;99.90
21849;DHT22;11089;49.852;19.700;2023-02-18T15:31:59;8.20;99.90
21849;DHT22;11089;49.852;19.700;2023-02-18T15:35:14;8.20;99.90
21849;DHT22;11089;49.852;19.700;2023-02-18T15:38:18;8.20;99.90
21849;DHT22;11089;49.852;19.700;2023-02-18T15:41:21;8.20;99.90
21849;DHT22;11089;49.852;19.700;2023-02-18T15:44:26;8.20;99.90
21849;DHT22;11089;49.852;19.700;2023-02-18T15:47:31;8.20;99.90
21849;DHT22;11089;49.852;19.700;2023-02-18T15:50:35;8.20;99.90
21849;DHT22;11089;49.852;19.700;2023-02-18T15:53:39;8.20;99.90
21849;DHT22;11089;49.852;19.700;2023-02-18T15:56:44;8.20;99.90
21849;DHT22;11089;49.852;19.700;2023-02-18T15:59:53;8.20;99.90
21849;DHT22;11089;49.852;19.700;2023-02-18T16:03:14;8.10;99.90
21849;DHT22;11089;49.852;19.700;2023-02-18T16:06:25;8.10;99.90
21849;DHT22;11089;49.852;19.700;2023-02-18T16:09:33;8.20;99.90
21849;DHT22;11089;49.852;19.700;2023-02-18T16:12:38;8.20;99.90
21849;DHT22;11089;49.852;19.700;2023-02-18T16:15:41;8.20;99.90
21849;DHT22;11089;49.852;19.700;2023-02-18T16:18:43;8.20;99.90
21849;DHT22;11089;49.852;19.700;2023-02-18T16:21:44;8.30;99.90
21849;DHT22;11089;49.852;19.700;2023-02-18T16:24:57;8.30;99.90
21849;DHT22;11089;49.852;19.700;2023-02-18T16:28:03;8.40;99.90
21849;DHT22;11089;49.852;19.700;2023-02-18T16:31:06;8.40;99.90
21849;DHT22;11089;49.852;19.700;2023-02-18T16:34:07;8.40;99.90
21849;DHT22;11089;49.852;19.700;2023-02-18T16:37:09;8.50;99.90
21849;DHT22;11089;49.852;19.700;2023-02-18T16:40:30;8.50;99.90
21849;DHT22;11089;49.852;19.700;2023-02-18T16:43:32;8.60;99.90
21849;DHT22;11089;49.852;19.700;2023-02-18T16:46:33;8.60;99.90
21849;DHT22;11089;49.852;19.700;2023-02-18T16:49:35;8.70;99.90
21849;DHT22;11089;49.852;19.700;2023-02-18T16:52:36;8.70;99.90
21849;DHT22;11089;49.852;19.700;2023-02-18T16:55:37;8.80;99.90
21849;DHT22;11089;49.852;19.700;2023-02-18T16:58:38;8.80;99.90
21849;DHT22;11089;49.852;19.700;2023-02-18T17:01:43;8.90;99.90
21849;DHT22;11089;49.852;19.700;2023-02-18T17:04:45;8.80;99.90
21849;DHT22;11089;49.852;19.700;2023-02-18T17:07:46;8.80;99.90
21849;DHT22;11089;49.852;19.700;2023-02-18T17:10:49;8.90;99.90
21849;DHT22;11089;49.852;19.700;2023-02-18T17:13:52;8.80;99.90
21849;DHT22;11089;49.852;19.700;2023-02-18T17:16:53;8.90;99.90
21849;DHT22;11089;49.852;19.700;2023-02-18T17:19:54;8.90;99.90
21849;DHT22;11089;49.852;19.700;2023-02-18T17:22:55;8.90;99.90
21849;DHT22;11089;49.852;19.700;2023-02-18T17:25:58;9.10;99.90
21849;DHT22;11089;49.852;19.700;2023-02-18T17:28:59;9.30;99.90
21849;DHT22;11089;49.852;19.700;2023-02-18T17:32:00;9.30;99.90
21849;DHT22;11089;49.852;19.700;2023-02-18T17:35:02;9.40;99.90
21849;DHT22;11089;49.852;19.700;2023-02-18T17:38:14;9.40;99.90
21849;DHT22;11089;49.852;19.700;2023-02-18T17:41:16;9.30;99.90
21849;DHT22;11089;49.852;19.700;2023-02-18T17:44:21;9.20;99.90
21849;DHT22;11089;49.852;19.700;2023-02-18T17:47:23;9.10;99.90
21849;DHT22;11089;49.852;19.700;2023-02-18T17:50:25;9.10;99.90
21849;DHT22;11089;49.852;19.700;2023-02-18T17:53:26;9.00;99.90
21849;DHT22;11089;49.852;19.700;2023-02-18T17:56:28;9.10;99.90
21849;DHT22;11089;49.852;19.700;2023-02-18T17:59:29;9.10;99.90
21849;DHT22;11089;49.852;19.700;2023-02-18T18:02:30;9.10;99.90
21849;DHT22;11089;49.852;19.700;2023-02-18T18:05:33;9.20;99.90
21849;DHT22;11089;49.852;19.700;2023-02-18T18:08:34;9.20;99.90
21849;DHT22;11089;49.852;19.700;2023-02-18T18:11:36;9.20;99.90
21849;DHT22;11089;49.852;19.700;2023-02-18T18:14:37;9.20;99.90
21849;DHT22;11089;49.852;19.700;2023-02-18T18:17:38;9.20;99.90
21849;DHT22;11089;49.852;19.700;2023-02-18T18:20:42;9.30;99.90
21849;DHT22;11089;49.852;19.700;2023-02-18T18:23:43;9.30;99.90
21849;DHT22;11089;49.852;19.700;2023-02-18T18:26:44;9.30;99.90
21849;DHT22;11089;49.852;19.700;2023-02-18T18:29:45;9.30;99.90
21849;DHT22;11089;49.852;19.700;2023-02-18T18:32:46;9.40;1.00
21849;DHT22;11089;49.852;19.700;2023-02-18T18:35:49;9.30;1.00
21849;DHT22;11089;49.852;19.700;2023-02-18T18:38:51;9.40;1.00
21849;DHT22;11089;49.852;19.700;2023-02-18T18:41:52;9.30;1.00
21849;DHT22;11089;49.852;19.700;2023-02-18T18:44:53;9.30;1.00
21849;DHT22;11089;49.852;19.700;2023-02-18T18:47:54;9.20;1.00
21849;DHT22;11089;49.852;19.700;2023-02-18T18:50:56;9.20;93.70
21849;DHT22;11089;49.852;19.700;2023-02-18T18:53:58;9.10;99.90
21849;DHT22;11089;49.852;19.700;2023-02-18T18:56:59;9.10;99.90
21849;DHT22;11089;49.852;19.700;2023-02-18T19:00:00;9.10;99.90
21849;DHT22;11089;49.852;19.700;2023-02-18T19:03:02;9.10;99.90
21849;DHT22;11089;49.852;19.700;2023-02-18T19:06:03;9.00;99.90
21849;DHT22;11089;49.852;19.700;2023-02-18T19:09:04;9.00;1.00
21849;DHT22;11089;49.852;19.700;2023-02-18T19:12:05;9.10;1.00
21849;DHT22;11089;49.852;19.700;2023-02-18T19:15:08;9.10;99.90
21849;DHT22;11089;49.852;19.700;2023-02-18T19:18:15;9.10;1.00
21849;DHT22;11089;49.852;19.700;2023-02-18T19:21:16;9.10;1.00
21849;DHT22;11089;49.852;19.700;2023-02-18T19:24:17;9.10;99.90
21849;DHT22;11089;49.852;19.700;2023-02-18T19:27:18;9.10;99.90
21849;DHT22;11089;49.852;19.700;2023-02-18T19:30:21;9.10;99.90
21849;DHT22;11089;49.852;19.700;2023-02-18T19:33:23;9.10;1.00
21849;DHT22;11089;49.852;19.700;2023-02-18T19:36:24;9.00;1.00
21849;DHT22;11089;49.852;19.700;2023-02-18T19:39:25;9.00;1.00
21849;DHT22;11089;49.852;19.700;2023-02-18T19:42:26;8.90;99.90
21849;DHT22;11089;49.852;19.700;2023-02-18T19:45:27;8.90;99.90
21849;DHT22;11089;49.852;19.700;2023-02-18T19:48:28;8.90;99.90
21849;DHT22;11089;49.852;19.700;2023-02-18T19:51:29;8.90;8.90
21849;DHT22;11089;49.852;19.700;2023-02-18T19:54:30;8.90;1.00
21849;DHT22;11089;49.852;19.700;2023-02-18T19:57:32;8.90;99.90
21849;DHT22;11089;49.852;19.700;2023-02-18T20:00:34;8.90;99.90
21849;DHT22;11089;49.852;19.700;2023-02-18T20:03:35;8.90;1.00
21849;DHT22;11089;49.852;19.700;2023-02-18T20:06:36;8.90;20.40
21849;DHT22;11089;49.852;19.700;2023-02-18T20:09:37;8.90;81.60
21849;DHT22;11089;49.852;19.700;2023-02-18T20:12:38;8.90;1.00
21849;DHT22;11089;49.852;19.700;2023-02-18T20:15:40;8.90;99.90
21849;DHT22;11089;49.852;19.700;2023-02-18T20:18:41;8.90;99.90
21849;DHT22;11089;49.852;19.700;2023-02-18T20:21:42;8.90;1.00
21849;DHT22;11089;49.852;19.700;2023-02-18T20:24:42;8.90;1.00
21849;DHT22;11089;49.852;19.700;2023-02-18T20:27:44;8.90;1.00
21849;DHT22;11089;49.852;19.700;2023-02-18T20:30:45;9.00;91.40
21849;DHT22;11089;49.852;19.700;2023-02-18T20:33:46;8.90;99.90
21849;DHT22;11089;49.852;19.700;2023-02-18T20:36:50;9.00;1.00
21849;DHT22;11089;49.852;19.700;2023-02-18T20:39:51;8.90;1.00
21849;DHT22;11089;49.852;19.700;2023-02-18T20:42:52;9.00;99.90
21849;DHT22;11089;49.852;19.700;2023-02-18T20:45:53;9.00;1.00
21849;DHT22;11089;49.852;19.700;2023-02-18T20:48:54;9.00;1.00
21849;DHT22;11089;49.852;19.700;2023-02-18T20:51:55;9.00;1.00
21849;DHT22;11089;49.852;19.700;2023-02-18T20:54:56;9.00;99.90
21849;DHT22;11089;49.852;19.700;2023-02-18T20:57:58;9.00;1.00
21849;DHT22;11089;49.852;19.700;2023-02-18T21:01:02;9.00;1.00
21849;DHT22;11089;49.852;19.700;2023-02-18T21:04:03;9.00;64.20
21849;DHT22;11089;49.852;19.700;2023-02-18T21:07:04;9.00;1.00
21849;DHT22;11089;49.852;19.700;2023-02-18T21:10:05;9.10;1.00
21849;DHT22;11089;49.852;19.700;2023-02-18T21:13:06;9.10;99.90
21849;DHT22;11089;49.852;19.700;2023-02-18T21:16:08;9.10;99.90
21849;DHT22;11089;49.852;19.700;2023-02-18T21:19:13;9.10;1.00
21849;DHT22;11089;49.852;19.700;2023-02-18T21:22:14;9.10;99.90
21849;DHT22;11089;49.852;19.700;2023-02-18T21:25:15;9.10;99.90
21849;DHT22;11089;49.852;19.700;2023-02-18T21:28:16;9.10;99.90
21849;DHT22;11089;49.852;19.700;2023-02-18T21:31:20;9.10;10.60
21849;DHT22;11089;49.852;19.700;2023-02-18T21:34:22;9.10;1.00
21849;DHT22;11089;49.852;19.700;2023-02-18T21:37:25;9.10;1.00
21849;DHT22;11089;49.852;19.700;2023-02-18T21:40:26;9.00;1.00
21849;DHT22;11089;49.852;19.700;2023-02-18T21:43:27;9.00;99.90
21849;DHT22;11089;49.852;19.700;2023-02-18T21:46:30;9.00;1.00
21849;DHT22;11089;49.852;19.700;2023-02-18T21:49:31;8.90;99.90
21849;DHT22;11089;49.852;19.700;2023-02-18T21:52:32;8.90;1.00
21849;DHT22;11089;49.852;19.700;2023-02-18T21:55:33;8.80;1.00
21849;DHT22;11089;49.852;19.700;2023-02-18T21:58:34;8.40;1.00